sensor_id;sensor_type;location;lat;lon;timestamp;temperature;humidity
66831;DHT22;53739;44.224;22.528;2022-08-19T00:00:20;614.90;2227.20
66831;DHT22;53739;44.224;22.528;2022-08-19T00:02:47;615.00;2201.60
66831;DHT22;53739;44.224;22.528;2022-08-19T00:05:13;615.00;2201.60
66831;DHT22;53739;44.224;22.528;2022-08-19T00:07:41;614.90;2201.60
66831;DHT22;53739;44.224;22.528;2022-08-19T00:10:10;614.90;2227.20
66831;DHT22;53739;44.224;22.528;2022-08-19T00:12:36;614.90;2252.80
66831;DHT22;53739;44.224;22.528;2022-08-19T00:15:05;614.90;2227.20
66831;DHT22;53739;44.224;22.528;2022-08-19T00:17:31;614.90;2227.20
66831;DHT22;53739;44.224;22.528;2022-08-19T00:19:57;614.80;2252.80
66831;DHT22;53739;44.224;22.528;2022-08-19T00:22:23;614.60;2278.40
66831;DHT22;53739;44.224;22.528;2022-08-19T00:24:49;614.60;2304.00
66831;DHT22;53739;44.224;22.528;2022-08-19T00:27:15;614.70;2304.00
66831;DHT22;53739;44.224;22.528;2022-08-19T00:29:41;614.60;2304.00
66831;DHT22;53739;44.224;22.528;2022-08-19T00:32:07;614.60;2304.00
66831;DHT22;53739;44.224;22.528;2022-08-19T00:34:33;614.60;2355.20
66831;DHT22;53739;44.224;22.528;2022-08-19T00:36:59;614.60;2355.20
66831;DHT22;53739;44.224;22.528;2022-08-19T00:39:25;614.50;2406.40
66831;DHT22;53739;44.224;22.528;2022-08-19T00:41:51;614.40;2406.40
66831;DHT22;53739;44.224;22.528;2022-08-19T00:44:25;614.50;2406.40
66831;DHT22;53739;44.224;22.528;2022-08-19T00:46:54;614.50;2432.00
66831;DHT22;53739;44.224;22.528;2022-08-19T00:49:39;614.60;2432.00
66831;DHT22;53739;44.224;22.528;2022-08-19T00:52:15;614.60;2406.40
66831;DHT22;53739;44.224;22.528;2022-08-19T00:54:42;614.40;2432.00
66831;DHT22;53739;44.224;22.528;2022-08-19T00:57:15;589.70;2432.00
66831;DHT22;53739;44.224;22.528;2022-08-19T00:59:44;589.40;2432.00
66831;DHT22;53739;44.224;22.528;2022-08-19T01:02:11;589.30;2432.00
66831;DHT22;53739;44.224;22.528;2022-08-19T01:04:38;589.30;2432.00
66831;DHT22;53739;44.224;22.528;2022-08-19T01:07:04;589.30;2432.00
66831;DHT22;53739;44.224;22.528;2022-08-19T01:09:30;589.30;2432.00
66831;DHT22;53739;44.224;22.528;2022-08-19T01:11:56;589.30;2432.00
66831;DHT22;53739;44.224;22.528;2022-08-19T01:14:23;589.30;2432.00
66831;DHT22;53739;44.224;22.528;2022-08-19T01:16:50;589.30;2432.00
66831;DHT22;53739;44.224;22.528;2022-08-19T01:19:33;589.40;2432.00
66831;DHT22;53739;44.224;22.528;2022-08-19T01:24:40;589.30;2432.00
66831;DHT22;53739;44.224;22.528;2022-08-19T01:27:07;589.30;2432.00
66831;DHT22;53739;44.224;22.528;2022-08-19T01:29:34;589.10;2432.00
66831;DHT22;53739;44.224;22.528;2022-08-19T01:32:02;589.00;2432.00
66831;DHT22;53739;44.224;22.528;2022-08-19T01:34:28;589.10;2432.00
66831;DHT22;53739;44.224;22.528;2022-08-19T01:36:54;589.10;2432.00
66831;DHT22;53739;44.224;22.528;2022-08-19T02:03:48;589.40;2432.00
66831;DHT22;53739;44.224;22.528;2022-08-19T02:06:13;589.20;2432.00
66831;DHT22;53739;44.224;22.528;2022-08-19T02:08:43;589.20;2432.00
66831;DHT22;53739;44.224;22.528;2022-08-19T02:11:19;589.20;2432.00
66831;DHT22;53739;44.224;22.528;2022-08-19T02:13:46;589.10;2432.00
66831;DHT22;53739;44.224;22.528;2022-08-19T02:16:11;589.20;2432.00
66831;DHT22;53739;44.224;22.528;2022-08-19T02:18:37;589.10;2432.00
66831;DHT22;53739;44.224;22.528;2022-08-19T02:21:03;589.10;2432.00
66831;DHT22;53739;44.224;22.528;2022-08-19T02:23:29;589.10;2432.00
66831;DHT22;53739;44.224;22.528;2022-08-19T02:25:55;589.20;2432.00
66831;DHT22;53739;44.224;22.528;2022-08-19T02:28:21;589.20;2432.00
66831;DHT22;53739;44.224;22.528;2022-08-19T02:30:47;589.00;2432.00
66831;DHT22;53739;44.224;22.528;2022-08-19T02:33:13;589.00;2432.00
66831;DHT22;53739;44.224;22.528;2022-08-19T02:35:46;589.00;2432.00
66831;DHT22;53739;44.224;22.528;2022-08-19T02:38:13;589.00;2432.00
66831;DHT22;53739;44.224;22.528;2022-08-19T02:41:02;588.90;2432.00
66831;DHT22;53739;44.224;22.528;2022-08-19T02:43:30;588.90;2432.00
66831;DHT22;53739;44.224;22.528;2022-08-19T02:45:57;589.00;2432.00
66831;DHT22;53739;44.224;22.528;2022-08-19T02:48:24;588.90;2432.00
66831;DHT22;53739;44.224;22.528;2022-08-19T02:50:52;588.80;2432.00
66831;DHT22;53739;44.224;22.528;2022-08-19T02:53:21;588.80;2432.00
66831;DHT22;53739;44.224;22.528;2022-08-19T02:55:49;588.90;2432.00
66831;DHT22;53739;44.224;22.528;2022-08-19T02:58:16;588.90;2432.00
66831;DHT22;53739;44.224;22.528;2022-08-19T03:00:47;564.10;2432.00
66831;DHT22;53739;44.224;22.528;2022-08-19T03:03:15;588.80;2432.00
66831;DHT22;53739;44.224;22.528;2022-08-19T03:05:41;564.10;2432.00
66831;DHT22;53739;44.224;22.528;2022-08-19T03:08:08;564.10;2432.00
66831;DHT22;53739;44.224;22.528;2022-08-19T03:10:45;588.80;2432.00
66831;DHT22;53739;44.224;22.528;2022-08-19T03:13:17;564.10;2432.00
66831;DHT22;53739;44.224;22.528;2022-08-19T03:15:45;564.10;2432.00
66831;DHT22;53739;44.224;22.528;2022-08-19T03:18:12;564.10;2432.00
66831;DHT22;53739;44.224;22.528;2022-08-19T03:20:46;564.00;2432.00
66831;DHT22;53739;44.224;22.528;2022-08-19T03:23:13;564.00;2432.00
66831;DHT22;53739;44.224;22.528;2022-08-19T03:25:42;563.80;2432.00
66831;DHT22;53739;44.224;22.528;2022-08-19T03:28:09;563.80;2432.00
66831;DHT22;53739;44.224;22.528;2022-08-19T03:30:36;563.80;2432.00
66831;DHT22;53739;44.224;22.528;2022-08-19T03:33:02;563.80;2432.00
66831;DHT22;53739;44.224;22.528;2022-08-19T03:35:29;563.80;2432.00
66831;DHT22;53739;44.224;22.528;2022-08-19T03:37:55;563.90;2432.00
66831;DHT22;53739;44.224;22.528;2022-08-19T03:40:21;563.90;2432.00
66831;DHT22;53739;44.224;22.528;2022-08-19T03:42:47;563.80;2432.00
66831;DHT22;53739;44.224;22.528;2022-08-19T03:45:13;563.90;2432.00
66831;DHT22;53739;44.224;22.528;2022-08-19T03:47:39;563.80;2432.00
66831;DHT22;53739;44.224;22.528;2022-08-19T03:50:05;563.70;2432.00
66831;DHT22;53739;44.224;22.528;2022-08-19T03:52:31;563.70;2432.00
66831;DHT22;53739;44.224;22.528;2022-08-19T03:54:57;563.70;2432.00
66831;DHT22;53739;44.224;22.528;2022-08-19T03:57:22;563.80;2432.00
66831;DHT22;53739;44.224;22.528;2022-08-19T03:59:48;563.70;2432.00
66831;DHT22;53739;44.224;22.528;2022-08-19T04:02:14;563.60;2432.00
66831;DHT22;53739;44.224;22.528;2022-08-19T04:04:42;563.60;2432.00
66831;DHT22;53739;44.224;22.528;2022-08-19T04:07:09;563.60;2432.00
66831;DHT22;53739;44.224;22.528;2022-08-19T04:09:36;563.60;2432.00
66831;DHT22;53739;44.224;22.528;2022-08-19T04:12:03;563.60;2432.00
66831;DHT22;53739;44.224;22.528;2022-08-19T04:14:31;563.40;2432.00
66831;DHT22;53739;44.224;22.528;2022-08-19T04:16:58;563.40;2432.00
66831;DHT22;53739;44.224;22.528;2022-08-19T04:19:25;563.50;2432.00
66831;DHT22;53739;44.224;22.528;2022-08-19T04:21:52;563.40;2432.00
66831;DHT22;53739;44.224;22.528;2022-08-19T04:24:19;563.50;2432.00
66831;DHT22;53739;44.224;22.528;2022-08-19T04:26:45;563.60;2432.00
66831;DHT22;53739;44.224;22.528;2022-08-19T04:29:18;563.70;2432.00
66831;DHT22;53739;44.224;22.528;2022-08-19T04:31:45;563.90;2432.00
66831;DHT22;53739;44.224;22.528;2022-08-19T04:34:13;564.00;2432.00
66831;DHT22;53739;44.224;22.528;2022-08-19T04:36:40;564.10;2432.00
66831;DHT22;53739;44.224;22.528;2022-08-19T04:39:09;588.80;2432.00
66831;DHT22;53739;44.224;22.528;2022-08-19T04:41:36;588.90;2432.00
66831;DHT22;53739;44.224;22.528;2022-08-19T04:44:20;589.00;2432.00
66831;DHT22;53739;44.224;22.528;2022-08-19T04:46:48;589.00;2432.00
66831;DHT22;53739;44.224;22.528;2022-08-19T04:49:15;589.10;2432.00
66831;DHT22;53739;44.224;22.528;2022-08-19T04:51:43;589.00;2432.00
66831;DHT22;53739;44.224;22.528;2022-08-19T04:54:09;589.10;2432.00
66831;DHT22;53739;44.224;22.528;2022-08-19T04:56:35;589.20;2432.00
66831;DHT22;53739;44.224;22.528;2022-08-19T04:59:01;589.40;2432.00
66831;DHT22;53739;44.224;22.528;2022-08-19T05:01:31;589.50;2432.00
66831;DHT22;53739;44.224;22.528;2022-08-19T05:04:03;589.60;2432.00
66831;DHT22;53739;44.224;22.528;2022-08-19T05:06:31;614.40;2432.00
66831;DHT22;53739;44.224;22.528;2022-08-19T05:09:02;614.50;2432.00
66831;DHT22;53739;44.224;22.528;2022-08-19T05:11:33;614.60;2432.00
66831;DHT22;53739;44.224;22.528;2022-08-19T05:14:00;614.70;2432.00
66831;DHT22;53739;44.224;22.528;2022-08-19T05:16:27;614.80;2432.00
66831;DHT22;53739;44.224;22.528;2022-08-19T05:18:53;615.00;2432.00
66831;DHT22;53739;44.224;22.528;2022-08-19T05:21:42;615.10;2432.00
66831;DHT22;53739;44.224;22.528;2022-08-19T05:24:27;640.00;2432.00
66831;DHT22;53739;44.224;22.528;2022-08-19T05:26:54;640.20;2432.00
66831;DHT22;53739;44.224;22.528;2022-08-19T05:29:23;640.30;2432.00
66831;DHT22;53739;44.224;22.528;2022-08-19T05:31:51;640.50;2432.00
66831;DHT22;53739;44.224;22.528;2022-08-19T05:34:18;640.60;2432.00
66831;DHT22;53739;44.224;22.528;2022-08-19T05:36:48;640.80;2432.00
66831;DHT22;53739;44.224;22.528;2022-08-19T05:39:19;640.80;2432.00
66831;DHT22;53739;44.224;22.528;2022-08-19T05:41:51;665.60;2432.00
66831;DHT22;53739;44.224;22.528;2022-08-19T05:44:20;665.70;2432.00
66831;DHT22;53739;44.224;22.528;2022-08-19T05:46:47;665.90;2432.00
66831;DHT22;53739;44.224;22.528;2022-08-19T05:49:15;666.10;2432.00
66831;DHT22;53739;44.224;22.528;2022-08-19T05:51:41;666.20;2432.00
66831;DHT22;53739;44.224;22.528;2022-08-19T05:54:08;666.20;2432.00
66831;DHT22;53739;44.224;22.528;2022-08-19T05:56:35;666.40;2432.00
66831;DHT22;53739;44.224;22.528;2022-08-19T05:59:05;691.20;2432.00
66831;DHT22;53739;44.224;22.528;2022-08-19T06:01:41;691.40;2432.00
66831;DHT22;53739;44.224;22.528;2022-08-19T06:04:07;691.60;2432.00
66831;DHT22;53739;44.224;22.528;2022-08-19T06:06:35;691.90;2432.00
66831;DHT22;53739;44.224;22.528;2022-08-19T06:09:02;692.10;2432.00
66831;DHT22;53739;44.224;22.528;2022-08-19T06:11:39;692.10;2432.00
66831;DHT22;53739;44.224;22.528;2022-08-19T06:14:08;716.80;2432.00
66831;DHT22;53739;44.224;22.528;2022-08-19T06:16:36;717.10;2432.00
66831;DHT22;53739;44.224;22.528;2022-08-19T06:19:07;717.30;2432.00
66831;DHT22;53739;44.224;22.528;2022-08-19T06:21:35;717.30;2432.00
66831;DHT22;53739;44.224;22.528;2022-08-19T06:24:07;717.60;2432.00
66831;DHT22;53739;44.224;22.528;2022-08-19T06:26:36;742.40;2432.00
66831;DHT22;53739;44.224;22.528;2022-08-19T06:29:07;742.60;2432.00
66831;DHT22;53739;44.224;22.528;2022-08-19T06:31:35;742.90;2432.00
66831;DHT22;53739;44.224;22.528;2022-08-19T06:34:02;743.10;2406.40
66831;DHT22;53739;44.224;22.528;2022-08-19T06:36:31;743.30;2406.40
66831;DHT22;53739;44.224;22.528;2022-08-19T06:39:01;768.10;2380.80
66831;DHT22;53739;44.224;22.528;2022-08-19T06:41:28;768.30;2355.20
66831;DHT22;53739;44.224;22.528;2022-08-19T06:43:55;768.40;2329.60
66831;DHT22;53739;44.224;22.528;2022-08-19T06:46:21;768.70;2355.20
66831;DHT22;53739;44.224;22.528;2022-08-19T06:48:47;793.70;2278.40
66831;DHT22;53739;44.224;22.528;2022-08-19T06:51:17;768.90;2252.80
66831;DHT22;53739;44.224;22.528;2022-08-19T06:53:47;793.80;2252.80
66831;DHT22;53739;44.224;22.528;2022-08-19T06:56:18;794.00;2278.40
66831;DHT22;53739;44.224;22.528;2022-08-19T06:58:45;794.00;2304.00
66831;DHT22;53739;44.224;22.528;2022-08-19T07:01:12;794.40;2252.80
66831;DHT22;53739;44.224;22.528;2022-08-19T07:03:39;819.30;2227.20
66831;DHT22;53739;44.224;22.528;2022-08-19T07:06:07;819.60;2150.40
66831;DHT22;53739;44.224;22.528;2022-08-19T07:08:34;819.50;2201.60
66831;DHT22;53739;44.224;22.528;2022-08-19T07:11:05;794.50;2124.80
66831;DHT22;53739;44.224;22.528;2022-08-19T07:13:32;794.30;2150.40
66831;DHT22;53739;44.224;22.528;2022-08-19T07:16:06;794.40;2124.80
66831;DHT22;53739;44.224;22.528;2022-08-19T07:18:33;794.10;2176.00
66831;DHT22;53739;44.224;22.528;2022-08-19T07:21:10;794.20;2201.60
66831;DHT22;53739;44.224;22.528;2022-08-19T07:23:36;794.30;2150.40
66831;DHT22;53739;44.224;22.528;2022-08-19T07:26:12;794.30;2176.00
66831;DHT22;53739;44.224;22.528;2022-08-19T07:28:38;794.40;2124.80
66831;DHT22;53739;44.224;22.528;2022-08-19T07:31:10;819.20;2099.20
66831;DHT22;53739;44.224;22.528;2022-08-19T07:33:36;819.50;2099.20
66831;DHT22;53739;44.224;22.528;2022-08-19T07:36:05;819.60;2124.80
66831;DHT22;53739;44.224;22.528;2022-08-19T07:38:32;819.60;2124.80
66831;DHT22;53739;44.224;22.528;2022-08-19T07:40:58;819.90;2124.80
66831;DHT22;53739;44.224;22.528;2022-08-19T07:43:24;820.10;2176.00
66831;DHT22;53739;44.224;22.528;2022-08-19T07:45:52;845.00;2099.20
66831;DHT22;53739;44.224;22.528;2022-08-19T07:48:25;845.10;2124.80
66831;DHT22;53739;44.224;22.528;2022-08-19T07:50:57;845.20;2073.60
66831;DHT22;53739;44.224;22.528;2022-08-19T07:53:25;845.20;2022.40
66831;DHT22;53739;44.224;22.528;2022-08-19T07:55:51;845.00;2022.40
66831;DHT22;53739;44.224;22.528;2022-08-19T07:58:20;845.00;2048.00
66831;DHT22;53739;44.224;22.528;2022-08-19T08:00:48;844.90;2022.40
66831;DHT22;53739;44.224;22.528;2022-08-19T08:03:17;845.20;2099.20
66831;DHT22;53739;44.224;22.528;2022-08-19T08:05:43;845.40;2124.80
66831;DHT22;53739;44.224;22.528;2022-08-19T08:08:28;845.60;2048.00
66831;DHT22;53739;44.224;22.528;2022-08-19T08:10:57;845.70;2073.60
66831;DHT22;53739;44.224;22.528;2022-08-19T08:13:24;870.40;1920.00
66831;DHT22;53739;44.224;22.528;2022-08-19T08:15:50;870.70;1996.80
66831;DHT22;53739;44.224;22.528;2022-08-19T08:18:16;870.70;1971.20
66831;DHT22;53739;44.224;22.528;2022-08-19T08:20:41;870.70;1920.00
66831;DHT22;53739;44.224;22.528;2022-08-19T08:23:07;870.50;1996.80
66831;DHT22;53739;44.224;22.528;2022-08-19T08:25:50;870.70;1971.20
66831;DHT22;53739;44.224;22.528;2022-08-19T08:28:17;870.90;1894.40
66831;DHT22;53739;44.224;22.528;2022-08-19T08:30:45;871.10;1894.40
66831;DHT22;53739;44.224;22.528;2022-08-19T08:33:14;871.10;1996.80
66831;DHT22;53739;44.224;22.528;2022-08-19T08:35:42;871.30;1868.80
66831;DHT22;53739;44.224;22.528;2022-08-19T08:38:08;871.30;1920.00
66831;DHT22;53739;44.224;22.528;2022-08-19T08:40:53;871.30;1920.00
66831;DHT22;53739;44.224;22.528;2022-08-19T08:43:34;871.30;1920.00
66831;DHT22;53739;44.224;22.528;2022-08-19T08:46:10;871.30;1843.20
66831;DHT22;53739;44.224;22.528;2022-08-19T08:48:51;871.10;1792.00
66831;DHT22;53739;44.224;22.528;2022-08-19T08:51:26;870.50;1843.20
66831;DHT22;53739;44.224;22.528;2022-08-19T08:53:53;870.70;1843.20
66831;DHT22;53739;44.224;22.528;2022-08-19T08:56:20;870.90;1868.80
66831;DHT22;53739;44.224;22.528;2022-08-19T08:58:59;871.10;1843.20
66831;DHT22;53739;44.224;22.528;2022-08-19T09:01:27;871.20;1843.20
66831;DHT22;53739;44.224;22.528;2022-08-19T09:03:53;871.30;1920.00
66831;DHT22;53739;44.224;22.528;2022-08-19T09:06:51;871.30;1792.00
66831;DHT22;53739;44.224;22.528;2022-08-19T09:09:34;871.00;1766.40
66831;DHT22;53739;44.224;22.528;2022-08-19T09:12:38;870.90;1817.60
66831;DHT22;53739;44.224;22.528;2022-08-19T09:15:07;871.10;1868.80
66831;DHT22;53739;44.224;22.528;2022-08-19T09:17:34;871.10;1843.20
66831;DHT22;53739;44.224;22.528;2022-08-19T09:20:05;871.30;1817.60
66831;DHT22;53739;44.224;22.528;2022-08-19T09:22:34;896.20;1920.00
66831;DHT22;53739;44.224;22.528;2022-08-19T09:25:01;896.30;1817.60
66831;DHT22;53739;44.224;22.528;2022-08-19T09:27:27;896.40;1740.80
66831;DHT22;53739;44.224;22.528;2022-08-19T09:29:53;896.40;1868.80
66831;DHT22;53739;44.224;22.528;2022-08-19T09:32:21;896.60;1766.40
66831;DHT22;53739;44.224;22.528;2022-08-19T09:34:47;896.80;1792.00
66831;DHT22;53739;44.224;22.528;2022-08-19T09:37:13;896.90;1817.60
66831;DHT22;53739;44.224;22.528;2022-08-19T09:39:39;896.90;1792.00
66831;DHT22;53739;44.224;22.528;2022-08-19T09:42:08;921.60;1817.60
66831;DHT22;53739;44.224;22.528;2022-08-19T09:44:38;921.70;1715.20
66831;DHT22;53739;44.224;22.528;2022-08-19T09:47:04;921.70;1740.80
66831;DHT22;53739;44.224;22.528;2022-08-19T09:49:30;896.70;1638.40
66831;DHT22;53739;44.224;22.528;2022-08-19T09:51:56;896.90;1843.20
66831;DHT22;53739;44.224;22.528;2022-08-19T09:54:23;921.80;1715.20
66831;DHT22;53739;44.224;22.528;2022-08-19T09:56:49;921.80;1766.40
66831;DHT22;53739;44.224;22.528;2022-08-19T09:59:15;922.00;1792.00
66831;DHT22;53739;44.224;22.528;2022-08-19T10:01:41;922.00;1638.40
66831;DHT22;53739;44.224;22.528;2022-08-19T10:04:07;922.00;1664.00
66831;DHT22;53739;44.224;22.528;2022-08-19T10:06:39;922.00;1740.80
66831;DHT22;53739;44.224;22.528;2022-08-19T10:09:07;922.10;1817.60
66831;DHT22;53739;44.224;22.528;2022-08-19T10:11:34;922.30;1766.40
66831;DHT22;53739;44.224;22.528;2022-08-19T10:14:01;922.50;1689.60
66831;DHT22;53739;44.224;22.528;2022-08-19T10:16:27;922.30;1740.80
66831;DHT22;53739;44.224;22.528;2022-08-19T10:18:54;922.40;1587.20
66831;DHT22;53739;44.224;22.528;2022-08-19T10:21:23;922.40;1792.00
66831;DHT22;53739;44.224;22.528;2022-08-19T10:23:51;922.40;1664.00
66831;DHT22;53739;44.224;22.528;2022-08-19T10:26:24;947.20;1612.80
66831;DHT22;53739;44.224;22.528;2022-08-19T10:28:50;947.30;1817.60
66831;DHT22;53739;44.224;22.528;2022-08-19T10:31:18;947.20;1689.60
66831;DHT22;53739;44.224;22.528;2022-08-19T10:33:46;922.50;1689.60
66831;DHT22;53739;44.224;22.528;2022-08-19T10:36:18;947.20;1689.60
66831;DHT22;53739;44.224;22.528;2022-08-19T10:38:46;947.20;1612.80
66831;DHT22;53739;44.224;22.528;2022-08-19T10:41:18;947.50;1587.20
66831;DHT22;53739;44.224;22.528;2022-08-19T10:43:45;947.50;1612.80
66831;DHT22;53739;44.224;22.528;2022-08-19T10:46:14;947.50;1587.20
66831;DHT22;53739;44.224;22.528;2022-08-19T10:48:42;947.80;1638.40
66831;DHT22;53739;44.224;22.528;2022-08-19T10:51:08;947.60;1561.60
66831;DHT22;53739;44.224;22.528;2022-08-19T10:53:53;947.90;1664.00
66831;DHT22;53739;44.224;22.528;2022-08-19T10:56:19;948.00;1612.80
66831;DHT22;53739;44.224;22.528;2022-08-19T10:59:04;948.10;1587.20
66831;DHT22;53739;44.224;22.528;2022-08-19T11:01:31;948.10;1561.60
66831;DHT22;53739;44.224;22.528;2022-08-19T11:04:03;947.80;1536.00
66831;DHT22;53739;44.224;22.528;2022-08-19T11:06:30;947.70;1408.00
66831;DHT22;53739;44.224;22.528;2022-08-19T11:08:56;947.60;1408.00
66831;DHT22;53739;44.224;22.528;2022-08-19T11:11:23;947.80;1433.60
66831;DHT22;53739;44.224;22.528;2022-08-19T11:13:49;947.70;1536.00
66831;DHT22;53739;44.224;22.528;2022-08-19T11:16:20;947.90;1561.60
66831;DHT22;53739;44.224;22.528;2022-08-19T11:18:52;947.80;1484.80
66831;DHT22;53739;44.224;22.528;2022-08-19T11:21:23;947.70;1459.20
66831;DHT22;53739;44.224;22.528;2022-08-19T11:23:52;947.80;1510.40
66831;DHT22;53739;44.224;22.528;2022-08-19T11:26:19;947.90;1484.80
66831;DHT22;53739;44.224;22.528;2022-08-19T11:28:45;947.90;1459.20
66831;DHT22;53739;44.224;22.528;2022-08-19T11:31:23;947.80;1459.20
66831;DHT22;53739;44.224;22.528;2022-08-19T11:33:49;948.00;1433.60
66831;DHT22;53739;44.224;22.528;2022-08-19T11:36:20;947.90;1408.00
66831;DHT22;53739;44.224;22.528;2022-08-19T11:38:47;947.90;1433.60
66831;DHT22;53739;44.224;22.528;2022-08-19T11:41:15;948.00;1433.60
66831;DHT22;53739;44.224;22.528;2022-08-19T11:43:41;947.80;1408.00
66831;DHT22;53739;44.224;22.528;2022-08-19T11:46:10;947.70;1356.80
66831;DHT22;53739;44.224;22.528;2022-08-19T11:48:38;947.80;1382.40
66831;DHT22;53739;44.224;22.528;2022-08-19T11:51:10;947.90;1408.00
66831;DHT22;53739;44.224;22.528;2022-08-19T11:53:37;948.10;1331.20
66831;DHT22;53739;44.224;22.528;2022-08-19T11:56:05;947.90;1356.80
66831;DHT22;53739;44.224;22.528;2022-08-19T11:58:31;948.10;1408.00
66831;DHT22;53739;44.224;22.528;2022-08-19T12:00:57;947.90;1305.60
66831;DHT22;53739;44.224;22.528;2022-08-19T12:03:24;947.90;1382.40
66831;DHT22;53739;44.224;22.528;2022-08-19T12:05:50;947.70;1408.00
66831;DHT22;53739;44.224;22.528;2022-08-19T12:08:16;948.00;1510.40
66831;DHT22;53739;44.224;22.528;2022-08-19T12:10:42;948.10;1433.60
66831;DHT22;53739;44.224;22.528;2022-08-19T12:13:09;973.00;1433.60
66831;DHT22;53739;44.224;22.528;2022-08-19T12:15:40;973.10;1561.60
66831;DHT22;53739;44.224;22.528;2022-08-19T12:18:07;973.10;1433.60
66831;DHT22;53739;44.224;22.528;2022-08-19T12:20:38;973.20;1408.00
66831;DHT22;53739;44.224;22.528;2022-08-19T12:23:06;973.40;1459.20
66831;DHT22;53739;44.224;22.528;2022-08-19T12:25:32;973.50;1408.00
66831;DHT22;53739;44.224;22.528;2022-08-19T12:28:00;973.50;1305.60
66831;DHT22;53739;44.224;22.528;2022-08-19T12:30:26;973.20;1331.20
66831;DHT22;53739;44.224;22.528;2022-08-19T12:32:52;972.90;1433.60
66831;DHT22;53739;44.224;22.528;2022-08-19T12:35:19;972.90;1331.20
66831;DHT22;53739;44.224;22.528;2022-08-19T12:37:46;973.10;1459.20
66831;DHT22;53739;44.224;22.528;2022-08-19T12:40:14;973.20;1484.80
66831;DHT22;53739;44.224;22.528;2022-08-19T12:42:40;973.30;1408.00
66831;DHT22;53739;44.224;22.528;2022-08-19T12:45:12;973.20;1280.00
66831;DHT22;53739;44.224;22.528;2022-08-19T12:47:38;972.80;1280.00
66831;DHT22;53739;44.224;22.528;2022-08-19T12:50:05;972.90;1408.00
66831;DHT22;53739;44.224;22.528;2022-08-19T12:52:35;972.80;1408.00
66831;DHT22;53739;44.224;22.528;2022-08-19T12:55:06;972.80;1331.20
66831;DHT22;53739;44.224;22.528;2022-08-19T12:57:32;948.10;1305.60
66831;DHT22;53739;44.224;22.528;2022-08-19T13:00:13;972.80;1280.00
66831;DHT22;53739;44.224;22.528;2022-08-19T13:02:43;972.80;1280.00
66831;DHT22;53739;44.224;22.528;2022-08-19T13:05:14;972.80;1280.00
66831;DHT22;53739;44.224;22.528;2022-08-19T13:07:41;972.80;1382.40
66831;DHT22;53739;44.224;22.528;2022-08-19T13:10:12;973.00;1280.00
66831;DHT22;53739;44.224;22.528;2022-08-19T13:12:38;973.00;1254.40
66831;DHT22;53739;44.224;22.528;2022-08-19T13:15:06;948.00;1280.00
66831;DHT22;53739;44.224;22.528;2022-08-19T13:17:34;948.10;1254.40
66831;DHT22;53739;44.224;22.528;2022-08-19T13:20:00;948.10;1203.20
66831;DHT22;53739;44.224;22.528;2022-08-19T13:22:26;948.10;1203.20
66831;DHT22;53739;44.224;22.528;2022-08-19T13:24:52;947.90;1203.20
66831;DHT22;53739;44.224;22.528;2022-08-19T13:27:18;948.00;1280.00
66831;DHT22;53739;44.224;22.528;2022-08-19T13:29:44;947.90;1382.40
66831;DHT22;53739;44.224;22.528;2022-08-19T13:32:31;947.90;1356.80
66831;DHT22;53739;44.224;22.528;2022-08-19T13:35:16;948.00;1382.40
66831;DHT22;53739;44.224;22.528;2022-08-19T13:37:42;947.70;1331.20
66831;DHT22;53739;44.224;22.528;2022-08-19T13:42:44;947.90;1254.40
66831;DHT22;53739;44.224;22.528;2022-08-19T13:45:12;948.00;1254.40
66831;DHT22;53739;44.224;22.528;2022-08-19T13:47:39;948.00;1203.20
66831;DHT22;53739;44.224;22.528;2022-08-19T13:50:12;948.10;1356.80
66831;DHT22;53739;44.224;22.528;2022-08-19T13:52:39;948.10;1228.80
66831;DHT22;53739;44.224;22.528;2022-08-19T13:55:06;948.00;1228.80
66831;DHT22;53739;44.224;22.528;2022-08-19T13:57:32;948.10;1280.00
66831;DHT22;53739;44.224;22.528;2022-08-19T13:59:58;972.80;1356.80
66831;DHT22;53739;44.224;22.528;2022-08-19T14:02:24;972.80;1382.40
66831;DHT22;53739;44.224;22.528;2022-08-19T14:04:50;972.90;1280.00
66831;DHT22;53739;44.224;22.528;2022-08-19T14:07:16;972.80;1331.20
66831;DHT22;53739;44.224;22.528;2022-08-19T14:09:41;948.10;1331.20
66831;DHT22;53739;44.224;22.528;2022-08-19T14:12:07;948.10;1382.40
66831;DHT22;53739;44.224;22.528;2022-08-19T14:14:37;948.10;1254.40
66831;DHT22;53739;44.224;22.528;2022-08-19T14:17:07;947.90;1254.40
66831;DHT22;53739;44.224;22.528;2022-08-19T14:19:33;948.00;1305.60
66831;DHT22;53739;44.224;22.528;2022-08-19T14:21:59;948.00;1459.20
66831;DHT22;53739;44.224;22.528;2022-08-19T14:24:25;948.00;1356.80
66831;DHT22;53739;44.224;22.528;2022-08-19T14:26:51;948.00;1408.00
66831;DHT22;53739;44.224;22.528;2022-08-19T14:29:17;947.90;1254.40
66831;DHT22;53739;44.224;22.528;2022-08-19T14:31:42;947.90;1408.00
66831;DHT22;53739;44.224;22.528;2022-08-19T14:34:09;948.00;1305.60
66831;DHT22;53739;44.224;22.528;2022-08-19T14:36:36;947.90;1484.80
66831;DHT22;53739;44.224;22.528;2022-08-19T14:39:03;947.80;1331.20
66831;DHT22;53739;44.224;22.528;2022-08-19T14:41:29;947.70;1408.00
66831;DHT22;53739;44.224;22.528;2022-08-19T14:43:56;947.60;1331.20
66831;DHT22;53739;44.224;22.528;2022-08-19T14:46:25;947.60;1356.80
66831;DHT22;53739;44.224;22.528;2022-08-19T14:48:52;947.60;1331.20
66831;DHT22;53739;44.224;22.528;2022-08-19T14:51:20;947.70;1305.60
66831;DHT22;53739;44.224;22.528;2022-08-19T14:53:46;947.60;1305.60
66831;DHT22;53739;44.224;22.528;2022-08-19T14:56:18;947.60;1280.00
66831;DHT22;53739;44.224;22.528;2022-08-19T14:58:45;947.50;1484.80
66831;DHT22;53739;44.224;22.528;2022-08-19T15:01:12;947.50;1254.40
66831;DHT22;53739;44.224;22.528;2022-08-19T15:03:39;947.50;1280.00
66831;DHT22;53739;44.224;22.528;2022-08-19T15:06:07;947.40;1382.40
66831;DHT22;53739;44.224;22.528;2022-08-19T15:08:35;947.30;1228.80
66831;DHT22;53739;44.224;22.528;2022-08-19T15:11:02;947.30;1331.20
66831;DHT22;53739;44.224;22.528;2022-08-19T15:13:32;947.20;1254.40